sensor_id;sensor_type;location;lat;lon;timestamp;pressure;altitude;pressure_sealevel;temperature;humidity
72612;BME280;60655;52.182;4.474;2023-02-14T00:01:26;103560.75;;;5.51;83.21
72612;BME280;60655;52.182;4.474;2023-02-14T00:03:27;103555.59;;;5.50;83.30
72612;BME280;60655;52.182;4.474;2023-02-14T00:05:28;103559.19;;;5.37;83.16
72612;BME280;60655;52.182;4.474;2023-02-14T00:07:30;103564.63;;;5.23;83.50
72612;BME280;60655;52.182;4.474;2023-02-14T00:09:30;103563.78;;;5.23;83.87
72612;BME280;60655;52.182;4.474;2023-02-14T00:11:32;103561.75;;;5.26;82.82
72612;BME280;60655;52.182;4.474;2023-02-14T00:13:33;103561.00;;;5.13;83.40
72612;BME280;60655;52.182;4.474;2023-02-14T00:15:34;103561.13;;;5.12;83.84
72612;BME280;60655;52.182;4.474;2023-02-14T00:17:35;103561.66;;;5.28;83.90
72612;BME280;60655;52.182;4.474;2023-02-14T00:19:36;103558.22;;;5.38;83.67
72612;BME280;60655;52.182;4.474;2023-02-14T00:21:38;103563.09;;;5.32;83.44
72612;BME280;60655;52.182;4.474;2023-02-14T00:23:39;103547.53;;;5.29;83.11
72612;BME280;60655;52.182;4.474;2023-02-14T00:25:40;103554.13;;;5.34;83.40
72612;BME280;60655;52.182;4.474;2023-02-14T00:27:41;103548.34;;;5.29;82.97
72612;BME280;60655;52.182;4.474;2023-02-14T00:29:42;103545.34;;;5.23;82.64
72612;BME280;60655;52.182;4.474;2023-02-14T00:31:43;103535.63;;;5.23;83.25
72612;BME280;60655;52.182;4.474;2023-02-14T00:33:44;103537.91;;;5.17;82.44
72612;BME280;60655;52.182;4.474;2023-02-14T00:35:45;103543.44;;;5.25;82.92
72612;BME280;60655;52.182;4.474;2023-02-14T00:37:46;103528.78;;;5.21;82.61
72612;BME280;60655;52.182;4.474;2023-02-14T00:39:48;103549.66;;;5.24;82.74
72612;BME280;60655;52.182;4.474;2023-02-14T00:41:49;103538.47;;;5.09;83.60
72612;BME280;60655;52.182;4.474;2023-02-14T00:43:51;103531.09;;;4.90;83.37
72612;BME280;60655;52.182;4.474;2023-02-14T00:45:53;103526.69;;;5.02;83.34
72612;BME280;60655;52.182;4.474;2023-02-14T00:47:54;103532.34;;;5.08;82.75
72612;BME280;60655;52.182;4.474;2023-02-14T00:49:55;103532.97;;;5.12;82.80
72612;BME280;60655;52.182;4.474;2023-02-14T00:51:56;103534.91;;;4.86;83.28
72612;BME280;60655;52.182;4.474;2023-02-14T00:53:57;103528.63;;;4.76;84.07
72612;BME280;60655;52.182;4.474;2023-02-14T00:55:57;103518.75;;;4.91;83.89
72612;BME280;60655;52.182;4.474;2023-02-14T00:57:58;103521.44;;;5.02;83.00
72612;BME280;60655;52.182;4.474;2023-02-14T00:59:59;103525.66;;;4.81;83.14
72612;BME280;60655;52.182;4.474;2023-02-14T01:02:00;103521.22;;;4.81;83.71
72612;BME280;60655;52.182;4.474;2023-02-14T01:04:02;103522.28;;;4.79;85.02
72612;BME280;60655;52.182;4.474;2023-02-14T01:06:04;103522.94;;;4.69;84.41
72612;BME280;60655;52.182;4.474;2023-02-14T01:08:05;103527.34;;;4.82;84.16
72612;BME280;60655;52.182;4.474;2023-02-14T01:10:06;103525.44;;;4.84;83.72
72612;BME280;60655;52.182;4.474;2023-02-14T01:12:07;103532.63;;;4.93;83.85
72612;BME280;60655;52.182;4.474;2023-02-14T01:14:08;103513.88;;;4.97;83.70
72612;BME280;60655;52.182;4.474;2023-02-14T01:16:12;103519.38;;;4.70;83.74
72612;BME280;60655;52.182;4.474;2023-02-14T01:18:14;103518.94;;;4.77;83.83
72612;BME280;60655;52.182;4.474;2023-02-14T01:20:15;103518.19;;;4.74;83.98
72612;BME280;60655;52.182;4.474;2023-02-14T01:22:17;103516.22;;;4.65;84.21
72612;BME280;60655;52.182;4.474;2023-02-14T01:24:17;103511.78;;;4.66;84.28
72612;BME280;60655;52.182;4.474;2023-02-14T01:26:19;103521.56;;;4.77;84.16
72612;BME280;60655;52.182;4.474;2023-02-14T01:28:20;103513.16;;;4.71;83.98
72612;BME280;60655;52.182;4.474;2023-02-14T01:30:22;103521.44;;;4.54;84.14
72612;BME280;60655;52.182;4.474;2023-02-14T01:32:23;103512.91;;;4.51;84.83
72612;BME280;60655;52.182;4.474;2023-02-14T01:34:24;103513.44;;;4.56;84.60
72612;BME280;60655;52.182;4.474;2023-02-14T01:36:31;103517.84;;;4.55;84.83
72612;BME280;60655;52.182;4.474;2023-02-14T01:38:32;103517.78;;;4.44;84.37
72612;BME280;60655;52.182;4.474;2023-02-14T01:40:33;103508.50;;;4.51;84.65
72612;BME280;60655;52.182;4.474;2023-02-14T01:42:35;103515.88;;;4.70;84.32
72612;BME280;60655;52.182;4.474;2023-02-14T01:46:37;103512.72;;;4.78;84.06
72612;BME280;60655;52.182;4.474;2023-02-14T01:48:38;103512.75;;;4.65;84.01
72612;BME280;60655;52.182;4.474;2023-02-14T01:50:42;103504.28;;;4.49;84.27
72612;BME280;60655;52.182;4.474;2023-02-14T01:52:48;103512.00;;;4.39;85.26
72612;BME280;60655;52.182;4.474;2023-02-14T01:54:57;103517.34;;;4.50;84.82
72612;BME280;60655;52.182;4.474;2023-02-14T01:57:04;103516.94;;;4.44;85.44
72612;BME280;60655;52.182;4.474;2023-02-14T01:59:09;103516.38;;;4.51;84.81
72612;BME280;60655;52.182;4.474;2023-02-14T02:01:12;103510.91;;;4.54;84.69
72612;BME280;60655;52.182;4.474;2023-02-14T02:03:14;103510.69;;;4.57;84.31
72612;BME280;60655;52.182;4.474;2023-02-14T02:05:17;103509.66;;;4.47;85.58
72612;BME280;60655;52.182;4.474;2023-02-14T02:07:25;103507.69;;;4.38;84.71
72612;BME280;60655;52.182;4.474;2023-02-14T02:09:33;103502.63;;;4.35;85.30
72612;BME280;60655;52.182;4.474;2023-02-14T02:11:35;103505.97;;;4.50;84.78
72612;BME280;60655;52.182;4.474;2023-02-14T02:13:37;103507.25;;;4.44;84.87
72612;BME280;60655;52.182;4.474;2023-02-14T02:18:24;103504.31;;;4.36;85.49
72612;BME280;60655;52.182;4.474;2023-02-14T02:27:54;103503.78;;;4.44;85.06
72612;BME280;60655;52.182;4.474;2023-02-14T02:42:20;103496.31;;;4.37;84.51
72612;BME280;60655;52.182;4.474;2023-02-14T02:44:43;103491.91;;;4.38;84.63
72612;BME280;60655;52.182;4.474;2023-02-14T02:51:42;103493.63;;;4.26;84.83
72612;BME280;60655;52.182;4.474;2023-02-14T02:54:13;103489.84;;;4.30;85.11
72612;BME280;60655;52.182;4.474;2023-02-14T02:56:24;103490.25;;;4.24;84.75
72612;BME280;60655;52.182;4.474;2023-02-14T03:01:24;103486.16;;;4.33;84.92
72612;BME280;60655;52.182;4.474;2023-02-14T03:03:29;103487.97;;;4.20;85.44
72612;BME280;60655;52.182;4.474;2023-02-14T03:05:50;103491.09;;;4.25;84.65
72612;BME280;60655;52.182;4.474;2023-02-14T03:07:51;103483.56;;;4.07;86.15
72612;BME280;60655;52.182;4.474;2023-02-14T03:09:53;103486.41;;;4.04;86.23
72612;BME280;60655;52.182;4.474;2023-02-14T03:14:43;103478.72;;;4.14;84.98
72612;BME280;60655;52.182;4.474;2023-02-14T03:16:58;103485.88;;;4.12;85.47
72612;BME280;60655;52.182;4.474;2023-02-14T03:21:33;103490.81;;;4.17;85.02
72612;BME280;60655;52.182;4.474;2023-02-14T03:24:18;103491.38;;;3.96;85.18
72612;BME280;60655;52.182;4.474;2023-02-14T03:26:44;103493.06;;;3.97;85.41
72612;BME280;60655;52.182;4.474;2023-02-14T03:28:58;103491.28;;;3.98;85.46
72612;BME280;60655;52.182;4.474;2023-02-14T03:31:18;103479.38;;;3.92;86.10
72612;BME280;60655;52.182;4.474;2023-02-14T03:33:31;103486.13;;;3.96;86.00
72612;BME280;60655;52.182;4.474;2023-02-14T03:35:53;103482.22;;;4.02;86.30
72612;BME280;60655;52.182;4.474;2023-02-14T03:38:07;103490.59;;;4.07;85.39
72612;BME280;60655;52.182;4.474;2023-02-14T03:40:14;103478.06;;;4.11;84.89
72612;BME280;60655;52.182;4.474;2023-02-14T03:42:29;103481.50;;;3.87;85.57
72612;BME280;60655;52.182;4.474;2023-02-14T03:44:33;103482.53;;;3.85;86.59
72612;BME280;60655;52.182;4.474;2023-02-14T03:46:40;103479.59;;;3.89;86.54
72612;BME280;60655;52.182;4.474;2023-02-14T03:48:45;103478.53;;;3.92;86.03
72612;BME280;60655;52.182;4.474;2023-02-14T03:50:47;103477.06;;;4.00;85.94
72612;BME280;60655;52.182;4.474;2023-02-14T03:52:50;103474.34;;;4.02;85.92
72612;BME280;60655;52.182;4.474;2023-02-14T03:54:54;103473.97;;;4.06;85.62
72612;BME280;60655;52.182;4.474;2023-02-14T03:59:16;103475.19;;;3.90;86.08
72612;BME280;60655;52.182;4.474;2023-02-14T04:03:22;103471.81;;;4.00;86.05
72612;BME280;60655;52.182;4.474;2023-02-14T04:05:26;103476.22;;;4.00;85.42
72612;BME280;60655;52.182;4.474;2023-02-14T04:07:27;103466.03;;;3.95;86.08
72612;BME280;60655;52.182;4.474;2023-02-14T04:09:28;103467.59;;;3.85;86.85
72612;BME280;60655;52.182;4.474;2023-02-14T04:11:29;103474.88;;;3.82;86.58
72612;BME280;60655;52.182;4.474;2023-02-14T04:13:36;103471.59;;;3.91;86.42
72612;BME280;60655;52.182;4.474;2023-02-14T04:15:37;103471.19;;;3.84;86.33
72612;BME280;60655;52.182;4.474;2023-02-14T04:17:38;103469.91;;;3.90;86.42
72612;BME280;60655;52.182;4.474;2023-02-14T04:19:57;103474.03;;;3.81;86.57
72612;BME280;60655;52.182;4.474;2023-02-14T04:21:58;103460.69;;;3.71;86.95
72612;BME280;60655;52.182;4.474;2023-02-14T04:23:59;103465.31;;;3.68;87.18
72612;BME280;60655;52.182;4.474;2023-02-14T04:26:00;103474.22;;;3.78;87.64
72612;BME280;60655;52.182;4.474;2023-02-14T04:28:03;103458.66;;;3.88;87.78
72612;BME280;60655;52.182;4.474;2023-02-14T04:30:06;103474.97;;;3.80;87.30
72612;BME280;60655;52.182;4.474;2023-02-14T04:32:09;103473.28;;;3.92;87.34
72612;BME280;60655;52.182;4.474;2023-02-14T04:34:11;103469.28;;;3.86;87.25
72612;BME280;60655;52.182;4.474;2023-02-14T04:36:12;103470.75;;;3.90;87.34
72612;BME280;60655;52.182;4.474;2023-02-14T04:38:13;103474.13;;;3.92;87.49
72612;BME280;60655;52.182;4.474;2023-02-14T04:40:14;103468.22;;;4.01;87.16
72612;BME280;60655;52.182;4.474;2023-02-14T04:42:17;103468.75;;;3.94;86.98
72612;BME280;60655;52.182;4.474;2023-02-14T04:44:18;103472.72;;;4.12;86.57
72612;BME280;60655;52.182;4.474;2023-02-14T04:46:19;103474.81;;;4.20;85.56
72612;BME280;60655;52.182;4.474;2023-02-14T04:48:19;103475.16;;;4.02;86.53
72612;BME280;60655;52.182;4.474;2023-02-14T04:50:20;103476.50;;;4.08;86.26
72612;BME280;60655;52.182;4.474;2023-02-14T04:52:23;103479.69;;;4.00;85.60
72612;BME280;60655;52.182;4.474;2023-02-14T04:54:24;103474.72;;;4.08;85.86
72612;BME280;60655;52.182;4.474;2023-02-14T04:56:25;103474.59;;;4.10;85.68
72612;BME280;60655;52.182;4.474;2023-02-14T04:58:26;103478.56;;;3.79;86.77
72612;BME280;60655;52.182;4.474;2023-02-14T05:00:27;103474.34;;;3.77;87.75
72612;BME280;60655;52.182;4.474;2023-02-14T05:02:28;103473.50;;;3.76;86.96
72612;BME280;60655;52.182;4.474;2023-02-14T05:04:29;103473.63;;;3.62;87.57
72612;BME280;60655;52.182;4.474;2023-02-14T05:06:30;103472.38;;;3.67;87.95
72612;BME280;60655;52.182;4.474;2023-02-14T05:08:32;103477.91;;;3.88;86.94
72612;BME280;60655;52.182;4.474;2023-02-14T05:10:33;103472.22;;;3.82;86.68
72612;BME280;60655;52.182;4.474;2023-02-14T05:12:34;103473.50;;;3.89;86.43
72612;BME280;60655;52.182;4.474;2023-02-14T05:14:35;103468.25;;;3.76;86.77
72612;BME280;60655;52.182;4.474;2023-02-14T05:16:36;103464.91;;;3.74;86.86
72612;BME280;60655;52.182;4.474;2023-02-14T05:18:38;103469.09;;;3.77;86.31
72612;BME280;60655;52.182;4.474;2023-02-14T05:20:39;103466.34;;;3.78;85.41
72612;BME280;60655;52.182;4.474;2023-02-14T05:22:40;103462.91;;;3.65;86.28
72612;BME280;60655;52.182;4.474;2023-02-14T05:24:41;103465.22;;;3.69;86.51
72612;BME280;60655;52.182;4.474;2023-02-14T05:26:42;103459.41;;;3.77;86.11
72612;BME280;60655;52.182;4.474;2023-02-14T05:28:43;103458.19;;;3.70;85.32
72612;BME280;60655;52.182;4.474;2023-02-14T05:30:44;103466.34;;;3.78;86.54
72612;BME280;60655;52.182;4.474;2023-02-14T05:32:45;103453.44;;;3.75;86.31
72612;BME280;60655;52.182;4.474;2023-02-14T05:34:46;103468.47;;;3.73;85.69
72612;BME280;60655;52.182;4.474;2023-02-14T05:36:47;103465.19;;;3.82;86.35
72612;BME280;60655;52.182;4.474;2023-02-14T05:38:48;103464.78;;;3.76;86.22
72612;BME280;60655;52.182;4.474;2023-02-14T05:40:48;103457.34;;;3.69;86.42
72612;BME280;60655;52.182;4.474;2023-02-14T05:42:51;103454.59;;;3.58;86.19
72612;BME280;60655;52.182;4.474;2023-02-14T05:44:52;103465.75;;;3.62;86.65
72612;BME280;60655;52.182;4.474;2023-02-14T05:46:53;103458.16;;;3.57;86.88
72612;BME280;60655;52.182;4.474;2023-02-14T05:48:54;103458.59;;;3.64;87.23
72612;BME280;60655;52.182;4.474;2023-02-14T05:50:55;103459.84;;;3.71;86.51
72612;BME280;60655;52.182;4.474;2023-02-14T05:52:56;103446.91;;;3.81;87.04
72612;BME280;60655;52.182;4.474;2023-02-14T05:54:57;103451.72;;;3.87;87.31
72612;BME280;60655;52.182;4.474;2023-02-14T05:56:58;103450.56;;;3.78;86.99
72612;BME280;60655;52.182;4.474;2023-02-14T05:58:59;103444.88;;;3.97;87.10
72612;BME280;60655;52.182;4.474;2023-02-14T06:01:00;103455.63;;;3.81;87.36
72612;BME280;60655;52.182;4.474;2023-02-14T06:03:01;103453.44;;;3.75;87.39
72612;BME280;60655;52.182;4.474;2023-02-14T06:05:02;103454.06;;;3.66;87.10
72612;BME280;60655;52.182;4.474;2023-02-14T06:07:03;103444.09;;;3.46;87.03
72612;BME280;60655;52.182;4.474;2023-02-14T06:09:04;103450.59;;;3.53;87.70
72612;BME280;60655;52.182;4.474;2023-02-14T06:11:05;103446.41;;;3.63;87.53
72612;BME280;60655;52.182;4.474;2023-02-14T06:13:07;103452.91;;;3.70;87.47
72612;BME280;60655;52.182;4.474;2023-02-14T06:15:08;103449.97;;;3.75;86.98
72612;BME280;60655;52.182;4.474;2023-02-14T06:17:10;103452.06;;;3.69;86.56
72612;BME280;60655;52.182;4.474;2023-02-14T06:19:11;103452.06;;;3.57;87.40
72612;BME280;60655;52.182;4.474;2023-02-14T06:21:12;103447.97;;;3.53;87.66
72612;BME280;60655;52.182;4.474;2023-02-14T06:23:13;103447.34;;;3.49;87.31
72612;BME280;60655;52.182;4.474;2023-02-14T06:25:14;103445.66;;;3.48;87.61
72612;BME280;60655;52.182;4.474;2023-02-14T06:27:15;103455.13;;;3.63;87.77
72612;BME280;60655;52.182;4.474;2023-02-14T06:29:17;103454.59;;;3.58;87.15
72612;BME280;60655;52.182;4.474;2023-02-14T06:31:18;103449.75;;;3.52;86.91
72612;BME280;60655;52.182;4.474;2023-02-14T06:33:19;103448.91;;;3.52;86.63
72612;BME280;60655;52.182;4.474;2023-02-14T06:35:20;103451.66;;;3.50;87.35
72612;BME280;60655;52.182;4.474;2023-02-14T06:37:21;103445.66;;;3.61;86.78
72612;BME280;60655;52.182;4.474;2023-02-14T06:39:22;103446.75;;;3.46;86.58
72612;BME280;60655;52.182;4.474;2023-02-14T06:41:23;103456.50;;;3.56;87.40
72612;BME280;60655;52.182;4.474;2023-02-14T06:43:24;103455.03;;;3.65;86.50
72612;BME280;60655;52.182;4.474;2023-02-14T06:45:25;103450.06;;;3.48;86.79
72612;BME280;60655;52.182;4.474;2023-02-14T06:47:26;103453.66;;;3.34;87.39
72612;BME280;60655;52.182;4.474;2023-02-14T06:49:27;103450.63;;;3.40;87.20
72612;BME280;60655;52.182;4.474;2023-02-14T06:51:28;103448.72;;;3.55;87.58
72612;BME280;60655;52.182;4.474;2023-02-14T06:53:29;103454.38;;;3.61;86.69
72612;BME280;60655;52.182;4.474;2023-02-14T06:55:29;103451.53;;;3.52;86.26
72612;BME280;60655;52.182;4.474;2023-02-14T06:57:30;103454.69;;;3.57;86.58
72612;BME280;60655;52.182;4.474;2023-02-14T06:59:31;103455.56;;;3.45;86.62
72612;BME280;60655;52.182;4.474;2023-02-14T07:01:33;103447.34;;;3.36;87.70
72612;BME280;60655;52.182;4.474;2023-02-14T07:03:33;103456.06;;;3.37;87.17
72612;BME280;60655;52.182;4.474;2023-02-14T07:05:35;103448.84;;;3.41;87.30
72612;BME280;60655;52.182;4.474;2023-02-14T07:07:36;103448.28;;;3.48;87.71
72612;BME280;60655;52.182;4.474;2023-02-14T07:09:37;103452.94;;;3.45;87.46
72612;BME280;60655;52.182;4.474;2023-02-14T07:11:38;103450.94;;;3.35;87.60
72612;BME280;60655;52.182;4.474;2023-02-14T07:13:39;103459.75;;;3.47;87.20
72612;BME280;60655;52.182;4.474;2023-02-14T07:15:40;103467.63;;;3.60;87.94
72612;BME280;60655;52.182;4.474;2023-02-14T07:17:41;103465.63;;;3.63;87.38
72612;BME280;60655;52.182;4.474;2023-02-14T07:19:42;103471.75;;;3.64;86.79
72612;BME280;60655;52.182;4.474;2023-02-14T07:21:43;103470.78;;;3.65;86.29
72612;BME280;60655;52.182;4.474;2023-02-14T07:23:44;103467.09;;;3.55;86.95
72612;BME280;60655;52.182;4.474;2023-02-14T07:25:47;103468.28;;;3.63;87.21
72612;BME280;60655;52.182;4.474;2023-02-14T07:27:48;103479.41;;;3.67;87.09
72612;BME280;60655;52.182;4.474;2023-02-14T07:29:49;103463.34;;;3.71;87.11
72612;BME280;60655;52.182;4.474;2023-02-14T07:31:50;103473.22;;;3.68;86.95
72612;BME280;60655;52.182;4.474;2023-02-14T07:33:51;103477.50;;;3.82;87.32
72612;BME280;60655;52.182;4.474;2023-02-14T07:35:52;103469.31;;;3.61;86.97
72612;BME280;60655;52.182;4.474;2023-02-14T07:37:53;103470.47;;;3.69;86.91
72612;BME280;60655;52.182;4.474;2023-02-14T07:39:54;103467.22;;;3.66;87.39
72612;BME280;60655;52.182;4.474;2023-02-14T07:41:55;103469.72;;;3.80;86.99
72612;BME280;60655;52.182;4.474;2023-02-14T07:43:56;103466.44;;;3.89;87.33
72612;BME280;60655;52.182;4.474;2023-02-14T07:45:58;103476.88;;;3.91;86.97
72612;BME280;60655;52.182;4.474;2023-02-14T07:47:59;103461.94;;;3.91;86.30
72612;BME280;60655;52.182;4.474;2023-02-14T07:50:01;103468.03;;;3.92;87.10
72612;BME280;60655;52.182;4.474;2023-02-14T07:52:03;103470.34;;;3.96;87.16
72612;BME280;60655;52.182;4.474;2023-02-14T07:54:04;103468.41;;;4.11;86.73
72612;BME280;60655;52.182;4.474;2023-02-14T07:56:05;103464.19;;;4.08;86.63
72612;BME280;60655;52.182;4.474;2023-02-14T07:58:06;103462.50;;;4.07;87.02
72612;BME280;60655;52.182;4.474;2023-02-14T08:00:08;103459.75;;;4.22;87.51
72612;BME280;60655;52.182;4.474;2023-02-14T08:02:11;103452.59;;;4.24;87.19
72612;BME280;60655;52.182;4.474;2023-02-14T08:04:12;103461.72;;;4.31;86.96
72612;BME280;60655;52.182;4.474;2023-02-14T08:06:18;103461.38;;;4.35;87.17
72612;BME280;60655;52.182;4.474;2023-02-14T08:08:19;103460.72;;;4.45;87.32
72612;BME280;60655;52.182;4.474;2023-02-14T08:10:20;103453.50;;;4.59;88.19
72612;BME280;60655;52.182;4.474;2023-02-14T08:12:21;103458.19;;;4.91;88.75
72612;BME280;60655;52.182;4.474;2023-02-14T08:14:42;103455.69;;;5.00;88.68
72612;BME280;60655;52.182;4.474;2023-02-14T08:16:43;103464.25;;;5.26;89.32
72612;BME280;60655;52.182;4.474;2023-02-14T08:18:44;103449.31;;;5.49;89.20
72612;BME280;60655;52.182;4.474;2023-02-14T08:20:46;103461.19;;;5.43;89.25
72612;BME280;60655;52.182;4.474;2023-02-14T08:22:50;103452.66;;;5.40;89.32
72612;BME280;60655;52.182;4.474;2023-02-14T08:24:51;103458.91;;;5.61;89.33
72612;BME280;60655;52.182;4.474;2023-02-14T08:26:52;103460.13;;;5.91;88.75
72612;BME280;60655;52.182;4.474;2023-02-14T08:28:53;103451.03;;;5.95;88.42
72612;BME280;60655;52.182;4.474;2023-02-14T08:30:54;103456.91;;;5.98;88.00
72612;BME280;60655;52.182;4.474;2023-02-14T08:32:55;103466.09;;;6.15;88.11
72612;BME280;60655;52.182;4.474;2023-02-14T08:34:56;103456.84;;;6.32;87.60
72612;BME280;60655;52.182;4.474;2023-02-14T08:36:57;103466.94;;;6.27;87.06
72612;BME280;60655;52.182;4.474;2023-02-14T08:38:58;103457.56;;;6.34;86.83
72612;BME280;60655;52.182;4.474;2023-02-14T08:40:59;103468.44;;;6.40;86.73
72612;BME280;60655;52.182;4.474;2023-02-14T08:43:02;103466.69;;;6.30;86.72
72612;BME280;60655;52.182;4.474;2023-02-14T08:45:03;103465.03;;;6.29;87.02
72612;BME280;60655;52.182;4.474;2023-02-14T08:47:04;103462.19;;;6.53;86.75
72612;BME280;60655;52.182;4.474;2023-02-14T08:49:05;103462.44;;;6.50;86.63
72612;BME280;60655;52.182;4.474;2023-02-14T08:51:13;103458.16;;;6.69;87.16
72612;BME280;60655;52.182;4.474;2023-02-14T08:53:14;103466.59;;;6.63;86.80
72612;BME280;60655;52.182;4.474;2023-02-14T08:55:16;103466.84;;;6.60;86.92
72612;BME280;60655;52.182;4.474;2023-02-14T08:57:17;103462.94;;;6.75;87.12
72612;BME280;60655;52.182;4.474;2023-02-14T08:59:18;103464.22;;;6.60;86.05
72612;BME280;60655;52.182;4.474;2023-02-14T09:01:19;103451.88;;;6.82;86.70
72612;BME280;60655;52.182;4.474;2023-02-14T09:03:20;103451.28;;;6.78;86.27
72612;BME280;60655;52.182;4.474;2023-02-14T09:05:21;103450.53;;;6.87;86.32
72612;BME280;60655;52.182;4.474;2023-02-14T09:07:23;103441.19;;;6.83;86.55
72612;BME280;60655;52.182;4.474;2023-02-14T09:09:24;103451.75;;;7.04;85.74
72612;BME280;60655;52.182;4.474;2023-02-14T09:11:25;103452.13;;;6.99;85.96
72612;BME280;60655;52.182;4.474;2023-02-14T09:13:25;103454.84;;;7.09;86.18
72612;BME280;60655;52.182;4.474;2023-02-14T09:15:27;103442.59;;;7.08;85.92
72612;BME280;60655;52.182;4.474;2023-02-14T09:17:28;103450.78;;;7.05;85.04
72612;BME280;60655;52.182;4.474;2023-02-14T09:19:34;103440.28;;;7.15;85.51
72612;BME280;60655;52.182;4.474;2023-02-14T09:21:35;103436.81;;;7.14;84.96
72612;BME280;60655;52.182;4.474;2023-02-14T09:23:37;103452.91;;;7.11;85.78
72612;BME280;60655;52.182;4.474;2023-02-14T09:25:38;103438.81;;;7.22;85.67
72612;BME280;60655;52.182;4.474;2023-02-14T09:27:39;103443.53;;;7.28;85.52
72612;BME280;60655;52.182;4.474;2023-02-14T09:29:41;103439.41;;;7.35;84.72
72612;BME280;60655;52.182;4.474;2023-02-14T09:31:42;103442.31;;;7.32;85.62
72612;BME280;60655;52.182;4.474;2023-02-14T09:33:43;103439.22;;;7.27;83.82
72612;BME280;60655;52.182;4.474;2023-02-14T09:35:44;103435.50;;;7.29;85.41
72612;BME280;60655;52.182;4.474;2023-02-14T09:38:04;103437.84;;;7.53;85.10
72612;BME280;60655;52.182;4.474;2023-02-14T09:40:05;103450.34;;;7.51;84.59
72612;BME280;60655;52.182;4.474;2023-02-14T09:44:48;103433.00;;;7.58;84.22
72612;BME280;60655;52.182;4.474;2023-02-14T09:46:54;103440.53;;;7.63;84.11
72612;BME280;60655;52.182;4.474;2023-02-14T09:48:57;103441.31;;;7.54;83.31
72612;BME280;60655;52.182;4.474;2023-02-14T09:51:11;103440.78;;;7.60;83.03
72612;BME280;60655;52.182;4.474;2023-02-14T09:53:26;103443.94;;;7.84;84.43
72612;BME280;60655;52.182;4.474;2023-02-14T09:55:45;103445.06;;;7.82;83.65
72612;BME280;60655;52.182;4.474;2023-02-14T09:57:59;103447.81;;;7.80;83.67
72612;BME280;60655;52.182;4.474;2023-02-14T10:09:02;103445.28;;;7.99;82.43
72612;BME280;60655;52.182;4.474;2023-02-14T10:11:10;103445.00;;;8.02;82.11
72612;BME280;60655;52.182;4.474;2023-02-14T10:13:16;103452.72;;;8.25;82.71
72612;BME280;60655;52.182;4.474;2023-02-14T10:15:25;103443.34;;;8.11;82.63
72612;BME280;60655;52.182;4.474;2023-02-14T10:21:48;103432.34;;;8.16;82.28
72612;BME280;60655;52.182;4.474;2023-02-14T10:26:27;103444.69;;;8.45;82.66
72612;BME280;60655;52.182;4.474;2023-02-14T10:28:49;103439.13;;;8.58;82.21
72612;BME280;60655;52.182;4.474;2023-02-14T10:31:21;103431.44;;;8.45;80.96
72612;BME280;60655;52.182;4.474;2023-02-14T10:33:23;103429.84;;;8.24;81.35
72612;BME280;60655;52.182;4.474;2023-02-14T10:40:40;103427.13;;;8.73;82.27
72612;BME280;60655;52.182;4.474;2023-02-14T10:42:56;103432.56;;;8.72;81.62
72612;BME280;60655;52.182;4.474;2023-02-14T10:56:13;103411.91;;;8.95;81.39
72612;BME280;60655;52.182;4.474;2023-02-14T10:58:20;103400.84;;;8.99;81.50
72612;BME280;60655;52.182;4.474;2023-02-14T11:00:23;103410.06;;;8.95;81.44
72612;BME280;60655;52.182;4.474;2023-02-14T11:02:46;103402.34;;;9.21;80.45
72612;BME280;60655;52.182;4.474;2023-02-14T11:04:50;103403.94;;;9.41;80.33
72612;BME280;60655;52.182;4.474;2023-02-14T11:06:52;103398.06;;;9.47;79.79
72612;BME280;60655;52.182;4.474;2023-02-14T11:08:53;103397.81;;;9.41;79.61
72612;BME280;60655;52.182;4.474;2023-02-14T11:11:09;103402.00;;;9.34;80.84
72612;BME280;60655;52.182;4.474;2023-02-14T11:13:29;103387.50;;;9.38;80.39
72612;BME280;60655;52.182;4.474;2023-02-14T11:15:32;103391.50;;;9.52;80.37
72612;BME280;60655;52.182;4.474;2023-02-14T11:17:35;103394.22;;;9.60;78.44
72612;BME280;60655;52.182;4.474;2023-02-14T11:19:37;103396.69;;;9.71;78.75
72612;BME280;60655;52.182;4.474;2023-02-14T11:21:39;103392.38;;;9.70;78.60
72612;BME280;60655;52.182;4.474;2023-02-14T11:23:45;103387.31;;;9.76;78.53
72612;BME280;60655;52.182;4.474;2023-02-14T11:25:51;103382.16;;;9.75;78.64
72612;BME280;60655;52.182;4.474;2023-02-14T11:28:01;103376.97;;;10.01;78.65
72612;BME280;60655;52.182;4.474;2023-02-14T11:30:12;103381.50;;;9.91;77.87
72612;BME280;60655;52.182;4.474;2023-02-14T11:32:29;103376.28;;;10.16;76.30
72612;BME280;60655;52.182;4.474;2023-02-14T11:34:46;103380.84;;;10.06;76.73
72612;BME280;60655;52.182;4.474;2023-02-14T11:36:52;103376.72;;;10.12;76.96
72612;BME280;60655;52.182;4.474;2023-02-14T11:41:14;103375.44;;;10.16;76.64
72612;BME280;60655;52.182;4.474;2023-02-14T11:43:19;103361.59;;;10.22;75.97
72612;BME280;60655;52.182;4.474;2023-02-14T11:45:35;103360.00;;;10.29;76.12
72612;BME280;60655;52.182;4.474;2023-02-14T11:47:37;103349.34;;;10.47;75.90
72612;BME280;60655;52.182;4.474;2023-02-14T11:49:53;103344.50;;;10.60;74.88
72612;BME280;60655;52.182;4.474;2023-02-14T11:51:58;103340.78;;;10.79;73.37
72612;BME280;60655;52.182;4.474;2023-02-14T11:54:01;103339.63;;;10.56;73.43
72612;BME280;60655;52.182;4.474;2023-02-14T11:56:04;103335.16;;;10.56;73.82
72612;BME280;60655;52.182;4.474;2023-02-14T11:58:06;103325.19;;;10.58;73.89
72612;BME280;60655;52.182;4.474;2023-02-14T12:00:16;103323.53;;;10.57;73.54
72612;BME280;60655;52.182;4.474;2023-02-14T12:02:22;103318.16;;;10.75;73.44
72612;BME280;60655;52.182;4.474;2023-02-14T12:04:34;103320.03;;;10.82;73.93
72612;BME280;60655;52.182;4.474;2023-02-14T12:06:37;103318.31;;;10.73;73.08
72612;BME280;60655;52.182;4.474;2023-02-14T12:08:39;103317.97;;;10.94;72.48
72612;BME280;60655;52.182;4.474;2023-02-14T12:10:41;103320.47;;;10.96;71.99
72612;BME280;60655;52.182;4.474;2023-02-14T12:12:55;103312.66;;;10.94;71.92
72612;BME280;60655;52.182;4.474;2023-02-14T12:17:44;103315.06;;;11.13;71.61